Springfield, IL (62707)

6:30 PM CST on February 08, 2016 (GMT -0600)
Southwest Springfield | | Change Station
CLOSE
Current Station
Personal Weather Station
Location: Springfield, IL
Elevation: 607 ft
Nearby Weather Stations

Elev 607 ft 39.76 °N, 89.68 °W | Updated 11 seconds ago

Snow
Snow
19.2 °F
Feels Like 10 °F
N
6.9
Wind Variable Wind from SW
Gusts 6.9 mph

Today
High -- | Low -- °F
--% Chance of Precip.
Yesterday
High -- | Low -- °F
Precip. -- in
Pressure 29.91 in
Visibility 1.8 miles
Clouds Mostly Cloudy 2500 ft
Overcast 3300 ft
Windchill 10 °F
Dew Point 17 °F
Humidity 91%
Rainfall 0.00 in
Snow Depth Not available.
7:00 AM 5:26 PM
New Moon, 0% visible
SPECI KSPI 090018Z 30015KT 1 3/4SM -SN BKN025 OVC033 M06/M09 A2991 RMK AO2 P0000 T10611089
Pressure 29.91 in
Visibility 1.8 miles
Clouds Mostly Cloudy 2500 ft
Overcast 3300 ft
Windchill 10 °F
Dew Point 17 °F
Humidity 91%
Rainfall 0.00 in
Snow Depth Not available.
7:00 AM 5:26 PM
New Moon, 0% visible
SPECI KSPI 090018Z 30015KT 1 3/4SM -SN BKN025 OVC033 M06/M09 A2991 RMK AO2 P0000 T10611089

10-Day Weather Forecast

Almanac

Astronomy

Feb. 08, 2016 Rise Set
Actual Time
Civil Twilight
Nautical Twilight
Astronomical Twilight
Moon
Length of Visible Light
Length of Day
Tomorrow will be .
, % of the Moon is Illuminated

Today's Extremes

State Highs State Lows

Community

WunderPhotos

Upload Photos

1,891,527 photos uploaded!

WunderBlog® & News

Nearby

Air Quality

  Air Quality AQ Index Pollutant
Not available.

Snow Depth

Station Depth Elevation

Earthquake Activity

City Distance Mag. Time & Date
Minimum magnitude displayed is 2.5.

Coastal Water Temperatures

Place Temperature

Stations

Nearby Weather Stations

Station Location Temp. Windchill Dew Point Humidity Wind Precip. Elev Updated Type
                   

Watches & Warnings

There are currently no watches in effect.